Killin, United Kingdom
Current Conditions -  °F | °C
As of 3:50 AM on Wednesday 26 Nov 2014 (Local Time) from EGPF Reporting Station
Moderate Fog Moderate Fog  
Wind Chill: 37°   Ceiling: Unl
Heat Index: 37°   Visibility: 0.03mi
Dew Point: 37°   Wind: 2mph
Humidity: 100%   Direction: 60°ENE
Pressure: 30.06"   Gusts: NA
Location:  56.45°N, 4.33°W
Report Text: EGPF 260350Z AUTO 06002KT 0050 FG VV/// 03/03 Q1018
Loading
Personal Weather Stations






























Interactive Weather Map New forecast layout! Learn more

10-Day Weather Forecast

Advertisements
Track Severe Weather on mobile